createdAt,value
2022-11-23T00:00:29.360Z,97940.63
2022-11-23T00:02:57.251Z,97952.28
2022-11-23T00:05:25.369Z,97953.88
2022-11-23T00:07:53.111Z,97943.34
2022-11-23T00:10:22.812Z,97955.00
2022-11-23T00:12:50.336Z,97947.81
2022-11-23T00:15:17.859Z,97949.41
2022-11-23T00:17:48.140Z,97953.66
2022-11-23T00:20:15.679Z,97957.66
2022-11-23T00:22:43.211Z,97958.19
2022-11-23T00:25:10.771Z,97961.41
2022-11-23T00:27:39.646Z,97962.47
2022-11-23T00:30:08.182Z,97959.72
2022-11-23T00:32:35.593Z,97961.19
2022-11-23T00:35:03.022Z,97960.56
2022-11-23T00:37:30.476Z,97969.38
2022-11-23T00:39:57.909Z,97964.91
2022-11-23T00:42:25.343Z,97967.78
2022-11-23T00:44:54.115Z,97976.16
2022-11-23T00:47:21.576Z,97974.91
2022-11-23T00:49:48.995Z,97977.63
2022-11-23T00:52:16.483Z,97970.22
2022-11-23T00:54:44.001Z,97970.97
2022-11-23T00:57:11.446Z,97974.34
2022-11-23T00:59:38.938Z,97975.81
2022-11-23T01:02:07.802Z,97972.97
2022-11-23T01:04:35.305Z,97980.28
2022-11-23T01:07:02.731Z,97984.66
2022-11-23T01:09:30.523Z,97981.41
2022-11-23T01:11:58.111Z,97979.47
2022-11-23T01:14:25.926Z,97986.88
2022-11-23T01:16:53.355Z,97986.28
2022-11-23T01:19:22.434Z,97984.13
2022-11-23T01:21:50.126Z,97988.47
2022-11-23T01:24:19.072Z,97982.03
2022-11-23T01:26:47.152Z,97978.31
2022-11-23T01:29:14.585Z,97984.19
2022-11-23T01:31:46.503Z,97987.97
2022-11-23T01:34:15.291Z,97995.72
2022-11-23T01:36:44.970Z,97988.63
2022-11-23T01:39:13.273Z,97992.03
2022-11-23T01:41:43.460Z,97994.63
2022-11-23T01:44:28.838Z,97997.34
2022-11-23T01:46:58.179Z,98008.41
2022-11-23T01:49:26.828Z,98012.97
2022-11-23T01:52:00.726Z,98001.41
2022-11-23T01:54:32.323Z,98015.97
2022-11-23T01:57:03.053Z,98002.81
2022-11-23T01:59:32.644Z,98004.59
2022-11-23T02:02:04.344Z,98011.47
2022-11-23T02:04:35.726Z,98017.75
2022-11-23T02:07:04.721Z,98021.59
2022-11-23T02:09:34.807Z,98018.41
2022-11-23T02:12:02.488Z,98019.91
2022-11-23T02:14:30.178Z,98025.63
2022-11-23T02:16:59.882Z,98018.50
2022-11-23T02:19:38.881Z,98012.44
2022-11-23T02:22:13.612Z,98024.34
2022-11-23T02:24:46.139Z,98013.22
2022-11-23T02:27:16.444Z,98026.16
2022-11-23T02:29:44.022Z,98025.50
2022-11-23T02:32:11.482Z,98015.00
2022-11-23T02:34:38.911Z,98027.44
2022-11-23T02:37:06.391Z,98023.72
2022-11-23T02:39:38.825Z,98030.09
2022-11-23T02:42:07.078Z,98021.78
2022-11-23T02:44:42.462Z,98021.16
2022-11-23T02:47:10.287Z,98028.56
2022-11-23T02:49:38.178Z,98030.16
2022-11-23T02:52:06.088Z,98033.28
2022-11-23T02:54:33.625Z,98036.88
2022-11-23T02:57:01.094Z,98035.16
2022-11-23T02:59:30.343Z,98043.03
2022-11-23T03:01:59.520Z,98046.53
2022-11-23T03:04:28.017Z,98047.59
2022-11-23T03:06:55.867Z,98031.34
2022-11-23T03:09:23.784Z,98041.13
2022-11-23T03:11:51.284Z,98038.38
2022-11-23T03:14:26.027Z,98037.09
2022-11-23T03:16:53.478Z,98049.84
2022-11-23T03:19:22.272Z,98049.84
2022-11-23T03:21:49.760Z,98049.19
2022-11-23T03:24:17.499Z,98049.50
2022-11-23T03:26:44.982Z,98055.03
2022-11-23T03:29:12.438Z,98053.88
2022-11-23T03:31:39.912Z,98056.72
2022-11-23T03:34:07.334Z,98057.34
2022-11-23T03:36:36.251Z,98055.75
2022-11-23T03:39:03.806Z,98056.94
2022-11-23T03:41:31.273Z,98047.88
2022-11-23T03:43:58.708Z,98049.03
2022-11-23T03:46:26.205Z,98046.69
2022-11-23T03:48:53.641Z,98059.13
2022-11-23T03:51:21.220Z,98048.09
2022-11-23T03:53:50.280Z,98054.88
2022-11-23T03:56:17.795Z,98047.75
2022-11-23T03:58:45.243Z,98054.69
2022-11-23T04:01:12.753Z,98057.91
2022-11-23T04:03:40.271Z,98064.69
2022-11-23T04:06:07.918Z,98059.19
2022-11-23T04:08:35.396Z,98054.88
2022-11-23T04:11:04.242Z,98061.19
2022-11-23T04:13:31.671Z,98066.59
2022-11-23T04:15:59.139Z,98069.66
2022-11-23T04:18:26.582Z,98064.81
2022-11-23T04:20:54.043Z,98058.97
2022-11-23T04:23:21.499Z,98056.19
2022-11-23T04:25:48.989Z,98064.56
2022-11-23T04:28:17.764Z,98056.25
2022-11-23T04:30:45.249Z,98051.69
2022-11-23T04:33:12.725Z,98060.59
2022-11-23T04:35:40.228Z,98061.38
2022-11-23T04:38:07.685Z,98064.19
2022-11-23T04:40:35.183Z,98062.19
2022-11-23T04:43:02.644Z,98058.13
2022-11-23T04:45:31.446Z,98061.66
2022-11-23T04:47:58.889Z,98066.00
2022-11-23T04:50:26.353Z,98072.22
2022-11-23T04:52:53.861Z,98067.75
2022-11-23T04:55:21.331Z,98064.69
2022-11-23T04:57:48.775Z,98068.59
2022-11-23T05:00:17.245Z,98069.22
2022-11-23T05:02:46.053Z,98060.97
2022-11-23T05:05:13.536Z,98062.56
2022-11-23T05:07:41.059Z,98069.66
2022-11-23T05:10:09.809Z,98068.16
2022-11-23T05:12:37.384Z,98060.56
2022-11-23T05:15:05.972Z,98064.56
2022-11-23T05:17:34.254Z,98065.22
2022-11-23T05:20:03.132Z,98069.25
2022-11-23T05:22:30.739Z,98062.63
2022-11-23T05:24:58.202Z,98063.69
2022-11-23T05:27:25.739Z,98062.09
2022-11-23T05:29:53.202Z,98066.44
2022-11-23T05:32:20.658Z,98062.84
2022-11-23T05:34:48.156Z,98058.56
2022-11-23T05:37:17.050Z,98063.63
2022-11-23T05:39:44.519Z,98068.34
2022-11-23T05:42:12.002Z,98065.63
2022-11-23T05:44:39.551Z,98073.97
2022-11-23T05:47:08.017Z,98071.41
2022-11-23T05:49:35.531Z,98068.75
2022-11-23T05:52:02.967Z,98069.72
2022-11-23T05:54:31.751Z,98068.53
2022-11-23T05:56:59.416Z,98072.78
2022-11-23T05:59:26.967Z,98069.16
2022-11-23T06:01:54.439Z,98064.59
2022-11-23T06:04:21.908Z,98067.38
2022-11-23T06:06:49.372Z,98062.34
2022-11-23T06:09:17.158Z,98073.56
2022-11-23T06:11:45.966Z,98074.84
2022-11-23T06:14:14.598Z,98073.06
2022-11-23T06:16:42.253Z,98079.97
2022-11-23T06:19:09.804Z,98079.34
2022-11-23T06:21:37.301Z,98079.47
2022-11-23T06:24:05.387Z,98085.94
2022-11-23T06:26:32.862Z,98083.94
2022-11-23T06:29:01.845Z,98089.34
2022-11-23T06:31:29.385Z,98077.88
2022-11-23T06:33:56.875Z,98074.25
2022-11-23T06:36:24.392Z,98080.00
2022-11-23T06:38:51.810Z,98072.81
2022-11-23T06:41:19.309Z,98073.09
2022-11-23T06:43:47.660Z,98080.22
2022-11-23T06:46:18.189Z,98080.72
2022-11-23T06:48:48.655Z,98081.94
2022-11-23T06:51:16.673Z,98090.94
2022-11-23T06:53:44.147Z,98090.31
2022-11-23T06:56:12.055Z,98094.88
2022-11-23T06:58:39.531Z,98104.28
2022-11-23T07:01:08.925Z,98096.34
2022-11-23T07:03:37.936Z,98099.00
2022-11-23T07:06:06.998Z,98104.78
2022-11-23T07:08:34.643Z,98099.97
2022-11-23T07:11:02.720Z,98110.59
2022-11-23T07:13:30.583Z,98105.13
2022-11-23T07:15:58.821Z,98106.22
2022-11-23T07:18:26.542Z,98113.59
2022-11-23T07:20:55.334Z,98114.34
2022-11-23T07:23:22.817Z,98113.59
2022-11-23T07:25:50.324Z,98105.34
2022-11-23T07:28:18.124Z,98116.53
2022-11-23T07:30:46.026Z,98113.09
2022-11-23T07:33:14.102Z,98118.41
2022-11-23T07:35:42.117Z,98112.44
2022-11-23T07:38:10.928Z,98121.59
2022-11-23T07:40:39.356Z,98129.97
2022-11-23T07:43:08.025Z,98124.34
2022-11-23T07:45:36.650Z,98126.19
2022-11-23T07:48:06.709Z,98122.78
2022-11-23T07:50:35.477Z,98128.09
2022-11-23T07:53:03.914Z,98127.28
2022-11-23T07:55:33.371Z,98132.94
2022-11-23T07:58:01.075Z,98143.88
2022-11-23T08:00:29.751Z,98127.69
2022-11-23T08:03:26.180Z,98140.34
2022-11-23T08:05:46.903Z,98135.09
2022-11-23T08:08:14.424Z,98140.19
2022-11-23T08:10:47.152Z,98141.31
2022-11-23T08:13:15.942Z,98144.84
2022-11-23T08:15:44.309Z,98142.19
2022-11-23T08:18:13.926Z,98140.97
2022-11-23T08:20:41.406Z,98144.97
2022-11-23T08:23:08.868Z,98144.84
2022-11-23T08:25:36.373Z,98145.22
2022-11-23T08:28:05.821Z,98145.06
2022-11-23T08:30:34.562Z,98143.72
2022-11-23T08:33:04.282Z,98150.53
2022-11-23T08:35:31.831Z,98158.13
2022-11-23T08:37:59.286Z,98160.50
2022-11-23T08:40:26.835Z,98161.69
2022-11-23T08:42:55.152Z,98161.22
2022-11-23T08:45:24.344Z,98166.84
2022-11-23T08:47:52.916Z,98167.38
2022-11-23T08:50:21.155Z,98171.34
2022-11-23T08:52:48.764Z,98170.38
2022-11-23T08:55:16.381Z,98164.31
2022-11-23T08:57:43.832Z,98167.00
2022-11-23T09:00:12.089Z,98172.63
2022-11-23T09:02:41.569Z,98166.66
2022-11-23T09:05:09.740Z,98164.88
2022-11-23T09:07:37.283Z,98165.19
2022-11-23T09:10:08.282Z,98171.38
2022-11-23T09:12:36.185Z,98161.59
2022-11-23T09:15:04.681Z,98166.72
2022-11-23T09:17:32.798Z,98171.06
2022-11-23T09:20:01.847Z,98174.34
2022-11-23T09:22:29.338Z,98167.34
2022-11-23T09:24:56.858Z,98165.09
2022-11-23T09:27:24.652Z,98166.50
2022-11-23T09:29:52.118Z,98163.50
2022-11-23T09:32:19.639Z,98165.97
2022-11-23T09:34:47.239Z,98167.97
2022-11-23T09:37:16.535Z,98172.97
2022-11-23T09:39:44.384Z,98164.47
2022-11-23T09:42:42.702Z,98168.63
2022-11-23T09:45:22.657Z,98177.13
2022-11-23T09:48:16.111Z,98181.56
2022-11-23T09:50:52.992Z,98169.66
2022-11-23T09:53:24.806Z,98178.56
2022-11-23T09:55:56.947Z,98179.31
2022-11-23T09:58:30.706Z,98168.69
2022-11-23T10:01:02.885Z,98176.16
2022-11-23T10:03:37.852Z,98180.16
2022-11-23T10:06:12.688Z,98171.09
2022-11-23T10:08:47.912Z,98176.41
2022-11-23T10:11:31.907Z,98171.31
2022-11-23T10:14:12.022Z,98161.97
2022-11-23T10:16:49.532Z,98172.19
2022-11-23T10:19:27.814Z,98168.13
2022-11-23T10:22:06.264Z,98169.59
2022-11-23T10:24:40.417Z,98164.06
2022-11-23T10:27:15.735Z,98170.91
2022-11-23T10:29:43.571Z,98166.41
2022-11-23T10:32:25.970Z,98168.88
2022-11-23T10:35:01.549Z,98170.38
2022-11-23T10:37:29.218Z,98169.19
2022-11-23T10:39:58.097Z,98173.25
2022-11-23T10:42:31.380Z,98180.59
2022-11-23T10:45:00.876Z,98181.66
2022-11-23T10:47:37.875Z,98177.94
2022-11-23T10:50:21.645Z,98154.19
2022-11-23T10:52:55.972Z,98162.56
2022-11-23T10:55:27.875Z,98154.31
2022-11-23T10:57:55.929Z,98154.91
2022-11-23T11:00:30.324Z,98148.28
2022-11-23T11:02:59.947Z,98135.19
2022-11-23T11:06:06.896Z,98130.97
2022-11-23T11:08:21.193Z,98126.13
2022-11-23T11:10:58.110Z,98132.63
2022-11-23T11:13:28.292Z,98116.66
2022-11-23T11:15:58.424Z,98122.63
2022-11-23T11:18:28.852Z,98113.78
2022-11-23T11:21:06.214Z,98112.09
2022-11-23T11:23:35.756Z,98117.75
2022-11-23T11:26:08.369Z,98122.84
2022-11-23T11:28:39.209Z,98114.25
2022-11-23T11:31:28.540Z,98107.84
2022-11-23T11:34:02.096Z,98114.00
2022-11-23T11:36:37.214Z,98110.50
2022-11-23T11:39:19.784Z,98101.78
2022-11-23T11:41:52.358Z,98094.78
2022-11-23T11:44:22.704Z,98082.22
2022-11-23T11:46:55.699Z,98098.66
2022-11-23T11:49:27.990Z,98100.38
2022-11-23T11:52:01.028Z,98093.41
2022-11-23T11:54:37.090Z,98090.66
2022-11-23T11:57:12.581Z,98082.78
2022-11-23T11:59:43.461Z,98078.38
2022-11-23T12:02:20.376Z,98077.38
2022-11-23T12:04:56.042Z,98063.81
2022-11-23T12:07:29.849Z,98070.09
2022-11-23T12:10:04.362Z,98073.50
2022-11-23T12:12:35.689Z,98077.38
2022-11-23T12:15:20.320Z,98082.56
2022-11-23T12:18:16.832Z,98081.22
2022-11-23T12:20:53.046Z,98087.81
2022-11-23T12:23:40.453Z,98089.84
2022-11-23T12:26:19.156Z,98093.25
2022-11-23T12:29:03.395Z,98090.19
2022-11-23T12:31:41.793Z,98093.78
2022-11-23T12:34:28.213Z,98091.19
2022-11-23T12:37:07.845Z,98091.56
2022-11-23T12:40:00.651Z,98092.75
2022-11-23T12:42:39.831Z,98089.13
2022-11-23T12:45:30.378Z,98084.63
2022-11-23T12:48:09.448Z,98086.22
2022-11-23T12:50:44.078Z,98092.72
2022-11-23T12:53:29.675Z,98091.53
2022-11-23T12:56:02.318Z,98090.41
2022-11-23T12:58:31.349Z,98084.53
2022-11-23T13:01:04.445Z,98081.56
2022-11-23T13:03:51.963Z,98073.16
2022-11-23T13:07:27.756Z,98072.84
2022-11-23T13:10:05.812Z,98069.13
2022-11-23T13:12:46.075Z,98059.56
2022-11-23T13:15:28.851Z,98058.94
2022-11-23T13:18:05.855Z,98064.69
2022-11-23T13:21:03.607Z,98062.34
2022-11-23T13:23:36.103Z,98056.75
2022-11-23T13:26:16.960Z,98052.28
2022-11-23T13:28:45.534Z,98036.22
2022-11-23T13:31:31.058Z,98040.66
2022-11-23T13:34:00.817Z,98041.75
2022-11-23T13:37:11.654Z,98043.44
2022-11-23T13:40:06.485Z,98026.19
2022-11-23T13:42:35.741Z,98024.13
2022-11-23T13:45:25.280Z,98020.47
2022-11-23T13:48:54.786Z,98022.88
2022-11-23T13:51:11.743Z,98024.63
2022-11-23T13:53:41.861Z,98026.53
2022-11-23T13:56:26.790Z,98022.75
2022-11-23T13:58:56.043Z,98025.78
2022-11-23T14:02:00.758Z,98024.81
2022-11-23T14:04:30.251Z,98027.50
2022-11-23T14:07:03.457Z,98020.22
2022-11-23T14:09:36.531Z,98026.03
2022-11-23T14:12:18.613Z,98024.28
2022-11-23T14:14:55.145Z,98019.16
2022-11-23T14:17:58.428Z,98028.44
2022-11-23T14:20:38.470Z,98036.31
2022-11-23T14:23:21.894Z,98033.78
2022-11-23T14:26:00.701Z,98037.94
2022-11-23T14:28:41.435Z,98034.66
2022-11-23T14:31:20.356Z,98025.75
2022-11-23T14:33:54.245Z,98021.56
2022-11-23T14:36:33.757Z,98016.50
2022-11-23T14:39:38.538Z,98019.28
2022-11-23T14:42:13.860Z,98015.94
2022-11-23T14:44:42.325Z,98014.91
2022-11-23T14:47:11.930Z,98021.09
2022-11-23T14:49:50.717Z,98017.50
2022-11-23T14:52:22.019Z,98017.56
2022-11-23T14:54:52.486Z,98030.78
2022-11-23T14:57:21.836Z,98022.00
2022-11-23T14:59:53.201Z,98020.59
2022-11-23T15:02:25.152Z,98025.03
2022-11-23T15:05:00.946Z,98027.06
2022-11-23T15:07:44.916Z,98026.03
2022-11-23T15:10:29.032Z,98024.88
2022-11-23T15:12:56.547Z,98027.22
2022-11-23T15:15:26.602Z,98033.47
2022-11-23T15:17:55.698Z,98034.41
2022-11-23T15:20:25.056Z,98034.63
2022-11-23T15:22:52.930Z,98042.38
2022-11-23T15:25:22.191Z,98038.66
2022-11-23T15:27:49.828Z,98055.16
2022-11-23T15:30:19.971Z,98045.47
2022-11-23T15:32:57.708Z,98058.94
2022-11-23T15:35:30.620Z,98066.50
2022-11-23T15:37:59.163Z,98072.34
2022-11-23T15:40:30.935Z,98080.72
2022-11-23T15:42:58.437Z,98074.91
2022-11-23T15:45:58.589Z,98086.25
2022-11-23T15:48:30.618Z,98088.31
2022-11-23T15:50:59.827Z,98090.84
2022-11-23T15:53:29.783Z,98095.00
2022-11-23T15:56:02.332Z,98098.28
2022-11-23T15:58:31.506Z,98102.09
2022-11-23T16:04:27.631Z,98100.19
2022-11-23T16:06:57.396Z,98099.25
2022-11-23T16:09:54.913Z,98091.91
2022-11-23T16:12:31.724Z,98097.00
2022-11-23T16:15:22.442Z,98093.78
2022-11-23T16:17:49.884Z,98107.28
2022-11-23T16:20:17.682Z,98119.75
2022-11-23T16:22:51.205Z,98124.94
2022-11-23T16:25:26.501Z,98141.00
2022-11-23T16:27:59.464Z,98148.56
2022-11-23T16:30:28.795Z,98150.16
2022-11-23T16:32:56.296Z,98156.94
2022-11-23T16:35:23.777Z,98156.28
2022-11-23T16:37:51.214Z,98169.59
2022-11-23T16:40:18.859Z,98173.72
2022-11-23T16:42:52.250Z,98176.28
2022-11-23T16:45:21.245Z,98170.00
2022-11-23T16:47:53.752Z,98193.06
2022-11-23T16:50:21.886Z,98193.94
2022-11-23T16:52:50.560Z,98207.66
2022-11-23T16:55:18.058Z,98207.84
2022-11-23T16:57:46.061Z,98211.34
2022-11-23T17:00:17.048Z,98225.19
2022-11-23T17:02:45.989Z,98215.50
2022-11-23T17:05:16.992Z,98228.03
2022-11-23T17:07:44.717Z,98226.66
2022-11-23T17:10:13.594Z,98226.03
2022-11-23T17:12:45.799Z,98230.28
2022-11-23T17:15:14.436Z,98232.94
2022-11-23T17:17:41.892Z,98237.72
2022-11-23T17:20:14.204Z,98237.66
2022-11-23T17:22:41.779Z,98248.41
2022-11-23T17:25:14.956Z,98235.59
2022-11-23T17:27:43.890Z,98242.31
2022-11-23T17:30:15.649Z,98245.41
2022-11-23T17:32:43.160Z,98248.63
2022-11-23T17:35:11.994Z,98252.59
2022-11-23T17:37:39.509Z,98249.56
2022-11-23T17:40:13.993Z,98250.88
2022-11-23T17:42:41.476Z,98253.94
2022-11-23T17:45:09.474Z,98267.31
2022-11-23T17:47:37.976Z,98275.72
2022-11-23T17:50:06.881Z,98280.41
2022-11-23T17:52:35.679Z,98274.38
2022-11-23T17:55:03.157Z,98262.34
2022-11-23T17:57:30.609Z,98256.91
2022-11-23T18:00:01.952Z,98265.41
2022-11-23T18:02:30.868Z,98268.97
2022-11-23T18:04:58.343Z,98265.88
2022-11-23T18:07:26.563Z,98248.66
2022-11-23T18:09:56.088Z,98260.28
2022-11-23T18:12:23.499Z,98262.41
2022-11-23T18:14:50.964Z,98261.56
2022-11-23T18:17:18.842Z,98278.31
2022-11-23T18:19:46.290Z,98284.31
2022-11-23T18:22:13.911Z,98292.47
2022-11-23T18:24:41.381Z,98290.69
2022-11-23T18:27:10.228Z,98294.63
2022-11-23T18:29:40.099Z,98300.88
2022-11-23T18:32:08.264Z,98294.63
2022-11-23T18:34:38.270Z,98297.06
2022-11-23T18:37:05.792Z,98301.09
2022-11-23T18:39:33.426Z,98291.41
2022-11-23T18:42:05.481Z,98293.91
2022-11-23T18:44:35.136Z,98306.84
2022-11-23T18:47:02.769Z,98300.22
2022-11-23T18:49:30.710Z,98310.22
2022-11-23T18:51:58.678Z,98310.28
2022-11-23T18:54:26.156Z,98318.72
2022-11-23T18:56:53.628Z,98319.19
2022-11-23T18:59:56.301Z,98316.13
2022-11-23T19:02:11.674Z,98332.06
2022-11-23T19:04:39.862Z,98333.97
2022-11-23T19:07:07.447Z,98346.69
2022-11-23T19:09:35.595Z,98348.34
2022-11-23T19:12:03.388Z,98351.00
2022-11-23T19:14:30.867Z,98358.03
2022-11-23T19:16:58.393Z,98353.75
2022-11-23T19:19:27.174Z,98359.69
2022-11-23T19:21:54.692Z,98363.69
2022-11-23T19:24:22.168Z,98363.41
2022-11-23T19:26:49.660Z,98362.25
2022-11-23T19:29:23.601Z,98370.03
2022-11-23T19:31:54.382Z,98373.63
2022-11-23T19:34:22.475Z,98376.97
2022-11-23T19:36:51.280Z,98386.44
2022-11-23T19:39:18.815Z,98384.44
2022-11-23T19:41:47.092Z,98391.34
2022-11-23T19:44:14.860Z,98393.56
2022-11-23T19:46:42.520Z,98406.91
2022-11-23T19:49:10.392Z,98393.56
2022-11-23T19:51:38.238Z,98400.25
2022-11-23T19:54:09.929Z,98401.34
2022-11-23T19:56:38.537Z,98408.03
2022-11-23T19:59:06.298Z,98406.22
2022-11-23T20:01:34.111Z,98399.75
2022-11-23T20:04:08.699Z,98412.53
2022-11-23T20:06:38.797Z,98407.78
2022-11-23T20:09:09.536Z,98423.16
2022-11-23T20:11:39.414Z,98430.25
2022-11-23T20:14:07.637Z,98420.75
2022-11-23T20:16:35.328Z,98423.25
2022-11-23T20:19:05.599Z,98432.53
2022-11-23T20:21:34.506Z,98438.00
2022-11-23T20:24:05.455Z,98439.84
2022-11-23T20:26:36.258Z,98438.97
2022-11-23T20:29:05.259Z,98440.97
2022-11-23T20:31:33.878Z,98441.22
2022-11-23T20:34:04.137Z,98435.25
2022-11-23T20:36:35.836Z,98438.56
2022-11-23T20:39:05.060Z,98448.16
2022-11-23T20:41:35.343Z,98457.06
2022-11-23T20:44:04.493Z,98452.63
2022-11-23T20:49:22.311Z,98458.38
2022-11-23T20:51:49.794Z,98469.78
2022-11-23T20:54:17.318Z,98463.41
2022-11-23T20:56:46.185Z,98466.84
2022-11-23T20:59:13.880Z,98476.19
2022-11-23T21:01:41.472Z,98474.41
2022-11-23T21:04:09.611Z,98474.50
2022-11-23T21:06:39.701Z,98480.28
2022-11-23T21:09:08.832Z,98471.00
2022-11-23T21:11:53.953Z,98478.28
2022-11-23T21:14:24.443Z,98480.94
2022-11-23T21:16:55.049Z,98489.97
2022-11-23T21:19:24.023Z,98489.47
2022-11-23T21:21:52.069Z,98481.44
2022-11-23T21:24:19.946Z,98487.22
2022-11-23T21:26:48.175Z,98494.03
2022-11-23T21:29:16.530Z,98492.69
2022-11-23T21:31:47.524Z,98504.25
2022-11-23T21:34:19.248Z,98492.25
2022-11-23T21:36:46.923Z,98500.78
2022-11-23T21:39:15.245Z,98509.91
2022-11-23T21:41:42.929Z,98503.97
2022-11-23T21:44:11.086Z,98506.97
2022-11-23T21:46:40.100Z,98501.94
2022-11-23T21:49:10.436Z,98508.00
2022-11-23T21:51:38.940Z,98512.53
2022-11-23T21:54:09.698Z,98521.47
2022-11-23T21:56:37.529Z,98527.50
2022-11-23T21:59:04.996Z,98514.44
2022-11-23T22:01:34.967Z,98533.59
2022-11-23T22:04:04.821Z,98535.13
2022-11-23T22:06:33.656Z,98533.03
2022-11-23T22:09:01.241Z,98537.59
2022-11-23T22:11:30.587Z,98528.28
2022-11-23T22:13:59.770Z,98538.56
2022-11-23T22:16:28.890Z,98535.50
2022-11-23T22:18:57.002Z,98538.63
2022-11-23T22:21:26.772Z,98540.16
2022-11-23T22:23:55.997Z,98543.09
2022-11-23T22:26:23.620Z,98544.53
2022-11-23T22:28:52.267Z,98544.91
2022-11-23T22:31:21.963Z,98550.50
2022-11-23T22:33:50.085Z,98550.03
2022-11-23T22:36:19.713Z,98551.25
2022-11-23T22:38:48.034Z,98554.94
2022-11-23T22:41:18.664Z,98558.84
2022-11-23T22:43:46.204Z,98559.19
2022-11-23T22:46:16.086Z,98559.31
2022-11-23T22:48:45.844Z,98557.59
2022-11-23T22:51:15.017Z,98559.31
2022-11-23T22:53:44.835Z,98575.81
2022-11-23T22:56:14.237Z,98571.91
2022-11-23T22:58:44.313Z,98578.78
2022-11-23T23:01:13.552Z,98580.56
2022-11-23T23:03:41.895Z,98586.13
2022-11-23T23:06:16.228Z,98583.97
2022-11-23T23:08:43.944Z,98584.94
2022-11-23T23:11:11.501Z,98578.97
2022-11-23T23:13:38.969Z,98595.84
2022-11-23T23:16:11.582Z,98590.25
2022-11-23T23:18:39.158Z,98594.03
2022-11-23T23:21:10.678Z,98602.09
2022-11-23T23:23:38.631Z,98600.97
2022-11-23T23:26:06.991Z,98608.94
2022-11-23T23:28:35.146Z,98608.94
2022-11-23T23:31:03.522Z,98614.03
2022-11-23T23:33:33.366Z,98609.91
2022-11-23T23:36:05.428Z,98616.69
2022-11-23T23:38:33.770Z,98624.88
2022-11-23T23:41:01.688Z,98628.47
2022-11-23T23:43:29.780Z,98632.09
2022-11-23T23:45:58.829Z,98622.59
2022-11-23T23:48:28.956Z,98634.00
2022-11-23T23:50:57.805Z,98635.16
2022-11-23T23:53:25.369Z,98639.88
2022-11-23T23:55:57.634Z,98636.94
2022-11-23T23:58:25.389Z,98636.94
